Terminal Aerodrome Forecast
Issued by NWS Buffalo, NY

Home | Current Version | Previous Version | Text Only | Print | Product List | Glossary On
Versions: 1 2 3 4 5 6 7 8 9 10 11 12 13 14 15 16 17 18 19 20 21 22 23 24 25 26 27 28 29 30
000
FTUS41 KBUF 041720
TAFROC
TAF
KROC 041720Z 0418/0518 08009KT P6SM SKC
     FM050000 06006KT P6SM SCT250
     FM050600 00000KT 4SM BR FEW250
     FM051300 17005KT P6SM SCT060=

USA.gov is the U.S. government's official web portal to all federal, state and local government web resources and services.